Řízení letového provozu České republiky
Letiste: LKTB Aktualizace: 11.12.2019 05:05:25  UTC
 METAR LKTB 11.12. 05:00 ...
METAR LKTB 110500Z 04003KT CAVOK M05/M06 Q1021 NOSIG RMK REG QNH 1014=
 TAF LKTB 11.12. 05:00 ...
TAF LKTB 110500Z 1106/1212 VRB02KT CAVOK      TEMPO 1106/1109 2000 MIFG NSC      PROB30 TEMPO 1106/1108 1200 BCFG SCT002      BECMG 1113/1115 13005KT      BECMG 1200/1203 2500 BR OVC012      TEMPO 1203/1210 1000 -SN BR OVC005      BECMG 1210/1212 19005KT 9999 BKN018=